Ladle Cove, Canada
Current Conditions -  °F | °C
As of 7:00 PM on Tuesday 25 Nov 2014 (Local Time) from CYQX Reporting Station
Broken Clouds Broken Clouds  
Wind Chill: 52°   Ceiling: 26000
Heat Index: 52°   Visibility: 20mi
Dew Point: 48°   Wind: 23mph
Humidity: 88%   Direction: 230°SW
Pressure: 29.55"   Gusts: 38mph
Location:  49.45°N, 54.05°W
Report Text: CYQX 252200Z 23020G33KT 20SM FEW180 BKN260 11/09 A2955 RMK AC1CI6 SLP010 DENSITY ALT 500FT
Loading
Personal Weather Stations






























Interactive Weather Map New forecast layout! Learn more

10-Day Weather Forecast

Advertisements
Track Severe Weather on mobile